sensor_id;sensor_type;location;lat;lon;timestamp;pressure;altitude;pressure_sealevel;temperature;humidity
47166;BME280;32930;51.112;13.762;2022-11-25T00:40:24;99289.00;;;6.28;100.00
47166;BME280;32930;51.112;13.762;2022-11-25T00:42:51;99294.78;;;6.19;100.00
47166;BME280;32930;51.112;13.762;2022-11-25T00:45:49;99299.09;;;6.21;100.00
47166;BME280;32930;51.112;13.762;2022-11-25T00:58:29;99291.63;;;6.32;100.00
47166;BME280;32930;51.112;13.762;2022-11-25T01:03:27;99289.94;;;6.33;100.00
47166;BME280;32930;51.112;13.762;2022-11-25T01:44:40;99299.53;;;5.60;100.00
47166;BME280;32930;51.112;13.762;2022-11-25T01:50:06;99309.63;;;5.55;100.00
47166;BME280;32930;51.112;13.762;2022-11-25T01:52:38;99295.88;;;5.48;100.00
47166;BME280;32930;51.112;13.762;2022-11-25T01:55:32;99293.47;;;5.54;100.00
47166;BME280;32930;51.112;13.762;2022-11-25T02:23:49;99286.16;;;5.70;100.00
47166;BME280;32930;51.112;13.762;2022-11-25T02:36:28;99281.31;;;5.80;100.00
47166;BME280;32930;51.112;13.762;2022-11-25T03:14:37;99293.88;;;6.15;100.00
47166;BME280;32930;51.112;13.762;2022-11-25T04:36:14;99317.34;;;6.46;100.00
47166;BME280;32930;51.112;13.762;2022-11-25T04:41:15;99315.00;;;6.57;100.00
47166;BME280;32930;51.112;13.762;2022-11-25T04:43:41;99313.31;;;6.57;100.00
47166;BME280;32930;51.112;13.762;2022-11-25T04:56:20;99322.81;;;6.67;100.00
47166;BME280;32930;51.112;13.762;2022-11-25T04:58:46;99315.22;;;6.69;100.00
47166;BME280;32930;51.112;13.762;2022-11-25T05:32:18;99315.06;;;6.60;100.00
47166;BME280;32930;51.112;13.762;2022-11-25T05:47:40;99326.75;;;6.03;100.00
47166;BME280;32930;51.112;13.762;2022-11-25T05:55:10;99330.88;;;5.98;100.00
47166;BME280;32930;51.112;13.762;2022-11-25T05:57:36;99331.44;;;5.86;100.00
47166;BME280;32930;51.112;13.762;2022-11-25T06:00:02;99340.63;;;5.78;100.00
47166;BME280;32930;51.112;13.762;2022-11-25T06:02:28;99335.28;;;5.67;100.00
47166;BME280;32930;51.112;13.762;2022-11-25T06:30:37;99354.19;;;5.77;100.00
47166;BME280;32930;51.112;13.762;2022-11-25T06:33:03;99357.78;;;5.87;100.00
47166;BME280;32930;51.112;13.762;2022-11-25T06:38:08;99367.44;;;5.62;100.00
47166;BME280;32930;51.112;13.762;2022-11-25T06:45:42;99374.38;;;5.69;100.00
47166;BME280;32930;51.112;13.762;2022-11-25T06:48:07;99378.81;;;5.78;100.00
47166;BME280;32930;51.112;13.762;2022-11-25T07:03:23;99388.56;;;5.96;100.00
47166;BME280;32930;51.112;13.762;2022-11-25T07:05:49;99392.94;;;6.03;100.00
47166;BME280;32930;51.112;13.762;2022-11-25T07:16:04;99408.16;;;5.64;100.00
47166;BME280;32930;51.112;13.762;2022-11-25T07:21:19;99416.00;;;5.73;100.00
47166;BME280;32930;51.112;13.762;2022-11-25T08:05:02;99422.16;;;6.20;100.00
47166;BME280;32930;51.112;13.762;2022-11-25T08:07:27;99427.72;;;6.43;100.00
47166;BME280;32930;51.112;13.762;2022-11-25T08:09:53;99431.56;;;6.65;99.88
47166;BME280;32930;51.112;13.762;2022-11-25T08:12:18;99435.66;;;6.59;99.67
47166;BME280;32930;51.112;13.762;2022-11-25T08:14:44;99436.06;;;6.80;99.23
47166;BME280;32930;51.112;13.762;2022-11-25T08:58:20;99457.09;;;7.69;91.80
47166;BME280;32930;51.112;13.762;2022-11-25T09:00:46;99450.03;;;7.51;93.85
47166;BME280;32930;51.112;13.762;2022-11-25T09:05:44;99452.09;;;7.75;91.76
47166;BME280;32930;51.112;13.762;2022-11-25T09:08:10;99450.97;;;7.57;91.82
47166;BME280;32930;51.112;13.762;2022-11-25T09:13:08;99452.25;;;7.85;90.83
47166;BME280;32930;51.112;13.762;2022-11-25T09:15:36;99458.88;;;7.73;90.50
47166;BME280;32930;51.112;13.762;2022-11-25T09:20:38;99462.34;;;7.78;90.84
47166;BME280;32930;51.112;13.762;2022-11-25T09:28:19;99457.78;;;7.58;93.57
47166;BME280;32930;51.112;13.762;2022-11-25T09:30:45;99449.75;;;7.88;91.43
47166;BME280;32930;51.112;13.762;2022-11-25T09:33:11;99448.72;;;7.76;91.38
47166;BME280;32930;51.112;13.762;2022-11-25T09:35:36;99451.47;;;7.89;90.36
47166;BME280;32930;51.112;13.762;2022-11-25T09:38:02;99457.50;;;7.96;89.43
47166;BME280;32930;51.112;13.762;2022-11-25T09:45:54;99454.31;;;8.12;89.69
47166;BME280;32930;51.112;13.762;2022-11-25T09:56:41;99459.06;;;8.47;87.19
47166;BME280;32930;51.112;13.762;2022-11-25T10:01:54;99457.44;;;8.54;88.00
47166;BME280;32930;51.112;13.762;2022-11-25T10:07:02;99470.47;;;8.74;86.38
47166;BME280;32930;51.112;13.762;2022-11-25T10:12:31;99467.06;;;8.75;84.97
47166;BME280;32930;51.112;13.762;2022-11-25T10:22:48;99468.03;;;8.86;86.35
47166;BME280;32930;51.112;13.762;2022-11-25T10:28:23;99459.53;;;8.89;85.21
47166;BME280;32930;51.112;13.762;2022-11-25T10:33:35;99467.28;;;8.98;84.78
47166;BME280;32930;51.112;13.762;2022-11-25T10:41:18;99460.50;;;9.00;84.90
47166;BME280;32930;51.112;13.762;2022-11-25T10:57:26;99450.69;;;9.46;82.83
47166;BME280;32930;51.112;13.762;2022-11-25T11:23:14;99439.09;;;10.02;82.65
47166;BME280;32930;51.112;13.762;2022-11-25T11:30:57;99420.34;;;10.10;77.51
47166;BME280;32930;51.112;13.762;2022-11-25T14:29:37;99466.22;;;9.70;86.36
47166;BME280;32930;51.112;13.762;2022-11-25T14:32:17;99461.94;;;9.66;86.09
47166;BME280;32930;51.112;13.762;2022-11-25T14:37:27;99478.97;;;9.64;86.28
47166;BME280;32930;51.112;13.762;2022-11-25T14:42:37;99484.81;;;9.45;86.96
47166;BME280;32930;51.112;13.762;2022-11-25T14:47:54;99492.56;;;9.52;87.32
47166;BME280;32930;51.112;13.762;2022-11-25T14:58:20;99511.19;;;9.38;88.58
47166;BME280;32930;51.112;13.762;2022-11-25T15:01:04;99512.13;;;9.43;87.14
47166;BME280;32930;51.112;13.762;2022-11-25T15:08:43;99515.34;;;9.25;87.06
47166;BME280;32930;51.112;13.762;2022-11-25T15:13:54;99504.94;;;9.10;88.58
47166;BME280;32930;51.112;13.762;2022-11-25T15:19:01;99509.19;;;9.06;88.68
47166;BME280;32930;51.112;13.762;2022-11-25T15:24:23;99510.06;;;9.10;88.43
47166;BME280;32930;51.112;13.762;2022-11-25T15:29:27;99513.50;;;9.13;90.97
47166;BME280;32930;51.112;13.762;2022-11-25T15:34:29;99519.06;;;8.75;91.98
47166;BME280;32930;51.112;13.762;2022-11-25T15:36:55;99525.22;;;8.91;90.35
47166;BME280;32930;51.112;13.762;2022-11-25T15:41:48;99541.94;;;8.65;91.70
47166;BME280;32930;51.112;13.762;2022-11-25T15:44:25;99537.84;;;8.77;90.78
47166;BME280;32930;51.112;13.762;2022-11-25T15:47:14;99544.78;;;8.86;89.55
47166;BME280;32930;51.112;13.762;2022-11-25T15:52:29;99544.75;;;8.83;88.50
47166;BME280;32930;51.112;13.762;2022-11-25T15:55:04;99548.03;;;8.76;88.10
47166;BME280;32930;51.112;13.762;2022-11-25T15:57:35;99548.78;;;8.66;90.11
47166;BME280;32930;51.112;13.762;2022-11-25T16:00:17;99553.69;;;8.49;91.31
47166;BME280;32930;51.112;13.762;2022-11-25T16:10:26;99553.72;;;8.53;90.19
47166;BME280;32930;51.112;13.762;2022-11-25T16:21:11;99569.03;;;8.50;91.30
47166;BME280;32930;51.112;13.762;2022-11-25T16:26:37;99576.84;;;8.61;88.76
47166;BME280;32930;51.112;13.762;2022-11-25T16:31:36;99584.25;;;8.43;89.95
47166;BME280;32930;51.112;13.762;2022-11-25T16:34:14;99575.53;;;8.30;92.37
47166;BME280;32930;51.112;13.762;2022-11-25T16:36:40;99582.78;;;8.58;89.44
47166;BME280;32930;51.112;13.762;2022-11-25T16:39:06;99578.38;;;8.48;90.15
47166;BME280;32930;51.112;13.762;2022-11-25T16:41:34;99589.53;;;8.53;89.81
47166;BME280;32930;51.112;13.762;2022-11-25T16:44:00;99591.09;;;8.42;90.66
47166;BME280;32930;51.112;13.762;2022-11-25T16:46:26;99586.66;;;8.35;91.53
47166;BME280;32930;51.112;13.762;2022-11-25T16:48:51;99587.69;;;8.43;90.87
47166;BME280;32930;51.112;13.762;2022-11-25T16:51:20;99591.94;;;8.44;89.99
47166;BME280;32930;51.112;13.762;2022-11-25T16:53:47;99590.22;;;8.43;90.92
47166;BME280;32930;51.112;13.762;2022-11-25T16:56:33;99590.91;;;8.34;91.13
47166;BME280;32930;51.112;13.762;2022-11-25T16:59:01;99589.13;;;8.29;91.92
47166;BME280;32930;51.112;13.762;2022-11-25T17:01:28;99572.88;;;8.24;93.00
47166;BME280;32930;51.112;13.762;2022-11-25T17:03:56;99584.06;;;8.30;92.11
47166;BME280;32930;51.112;13.762;2022-11-25T17:06:24;99581.31;;;8.17;93.42
47166;BME280;32930;51.112;13.762;2022-11-25T17:08:50;99579.84;;;8.32;92.23
47166;BME280;32930;51.112;13.762;2022-11-25T17:11:27;99576.25;;;8.21;93.27
47166;BME280;32930;51.112;13.762;2022-11-25T17:13:57;99586.47;;;8.20;93.97
47166;BME280;32930;51.112;13.762;2022-11-25T17:16:25;99578.09;;;8.31;92.50
47166;BME280;32930;51.112;13.762;2022-11-25T17:18:59;99578.81;;;8.23;93.61
47166;BME280;32930;51.112;13.762;2022-11-25T17:21:25;99580.50;;;8.22;93.95
47166;BME280;32930;51.112;13.762;2022-11-25T17:24:12;99589.88;;;8.20;93.88
47166;BME280;32930;51.112;13.762;2022-11-25T17:26:41;99579.56;;;8.14;95.71
47166;BME280;32930;51.112;13.762;2022-11-25T17:29:14;99592.44;;;8.20;95.26
47166;BME280;32930;51.112;13.762;2022-11-25T17:31:41;99592.31;;;8.14;96.07
47166;BME280;32930;51.112;13.762;2022-11-25T17:34:16;99594.94;;;8.19;95.33
47166;BME280;32930;51.112;13.762;2022-11-25T17:36:43;99600.75;;;8.08;96.25
47166;BME280;32930;51.112;13.762;2022-11-25T17:39:13;99604.09;;;8.06;97.22
47166;BME280;32930;51.112;13.762;2022-11-25T17:41:45;99604.25;;;8.13;96.55
47166;BME280;32930;51.112;13.762;2022-11-25T17:44:28;99607.63;;;8.12;97.10
47166;BME280;32930;51.112;13.762;2022-11-25T17:46:56;99610.97;;;8.08;96.89
47166;BME280;32930;51.112;13.762;2022-11-25T17:49:22;99610.16;;;8.11;97.06
47166;BME280;32930;51.112;13.762;2022-11-25T17:51:48;99604.38;;;8.23;95.68
47166;BME280;32930;51.112;13.762;2022-11-25T17:54:14;99618.97;;;8.30;94.27
47166;BME280;32930;51.112;13.762;2022-11-25T17:56:42;99611.81;;;8.09;96.65
47166;BME280;32930;51.112;13.762;2022-11-25T17:59:28;99609.44;;;8.20;96.39
47166;BME280;32930;51.112;13.762;2022-11-25T18:01:54;99615.13;;;8.03;98.04
47166;BME280;32930;51.112;13.762;2022-11-25T18:04:22;99617.84;;;8.12;95.91
47166;BME280;32930;51.112;13.762;2022-11-25T18:06:48;99624.00;;;8.24;95.46
47166;BME280;32930;51.112;13.762;2022-11-25T18:09:14;99615.22;;;8.08;96.54
47166;BME280;32930;51.112;13.762;2022-11-25T18:11:43;99629.91;;;8.23;95.51
47166;BME280;32930;51.112;13.762;2022-11-25T18:14:24;99620.53;;;8.20;96.31
47166;BME280;32930;51.112;13.762;2022-11-25T18:16:50;99627.19;;;8.12;96.12
47166;BME280;32930;51.112;13.762;2022-11-25T18:19:15;99632.41;;;8.17;95.63
47166;BME280;32930;51.112;13.762;2022-11-25T18:21:41;99631.41;;;8.08;96.46
47166;BME280;32930;51.112;13.762;2022-11-25T18:24:06;99636.72;;;8.22;95.36
47166;BME280;32930;51.112;13.762;2022-11-25T18:26:41;99644.25;;;8.13;95.42
47166;BME280;32930;51.112;13.762;2022-11-25T18:29:15;99640.72;;;8.06;97.29
47166;BME280;32930;51.112;13.762;2022-11-25T18:31:44;99642.44;;;8.06;97.21
47166;BME280;32930;51.112;13.762;2022-11-25T18:36:51;99652.81;;;8.15;96.64
47166;BME280;32930;51.112;13.762;2022-11-25T18:41:58;99655.44;;;8.20;95.61
47166;BME280;32930;51.112;13.762;2022-11-25T18:44:27;99654.31;;;8.04;96.67
47166;BME280;32930;51.112;13.762;2022-11-25T18:47:10;99656.91;;;8.05;96.82
47166;BME280;32930;51.112;13.762;2022-11-25T18:49:35;99649.13;;;7.98;98.04
47166;BME280;32930;51.112;13.762;2022-11-25T18:52:01;99656.00;;;8.03;97.61
47166;BME280;32930;51.112;13.762;2022-11-25T18:54:26;99667.22;;;8.11;97.34
47166;BME280;32930;51.112;13.762;2022-11-25T18:56:52;99675.69;;;8.09;96.89
47166;BME280;32930;51.112;13.762;2022-11-25T18:59:25;99667.91;;;8.03;97.88
47166;BME280;32930;51.112;13.762;2022-11-25T19:01:51;99674.16;;;8.19;97.75
47166;BME280;32930;51.112;13.762;2022-11-25T19:04:17;99676.59;;;8.11;97.15
47166;BME280;32930;51.112;13.762;2022-11-25T19:06:43;99680.69;;;8.03;98.10
47166;BME280;32930;51.112;13.762;2022-11-25T19:09:08;99679.03;;;8.06;98.88
47166;BME280;32930;51.112;13.762;2022-11-25T19:11:37;99682.50;;;8.10;98.55
47166;BME280;32930;51.112;13.762;2022-11-25T19:16:34;99690.19;;;8.10;97.57
47166;BME280;32930;51.112;13.762;2022-11-25T19:19:00;99684.84;;;7.96;99.40
47166;BME280;32930;51.112;13.762;2022-11-25T19:21:27;99686.59;;;7.99;100.00
47166;BME280;32930;51.112;13.762;2022-11-25T19:23:54;99686.69;;;8.05;99.61
47166;BME280;32930;51.112;13.762;2022-11-25T19:26:28;99698.56;;;8.03;99.51
47166;BME280;32930;51.112;13.762;2022-11-25T19:29:01;99690.31;;;8.18;99.16
47166;BME280;32930;51.112;13.762;2022-11-25T19:31:31;99681.47;;;7.99;100.00
47166;BME280;32930;51.112;13.762;2022-11-25T19:33:59;99691.59;;;7.94;100.00
47166;BME280;32930;51.112;13.762;2022-11-25T19:36:27;99692.56;;;7.99;100.00
47166;BME280;32930;51.112;13.762;2022-11-25T19:38:55;99694.25;;;7.99;100.00
47166;BME280;32930;51.112;13.762;2022-11-25T19:41:21;99698.56;;;8.03;100.00
47166;BME280;32930;51.112;13.762;2022-11-25T19:43:47;99697.56;;;7.93;100.00
47166;BME280;32930;51.112;13.762;2022-11-25T19:46:24;99702.75;;;7.98;100.00
47166;BME280;32930;51.112;13.762;2022-11-25T19:48:53;99706.00;;;7.90;100.00
47166;BME280;32930;51.112;13.762;2022-11-25T19:51:22;99706.06;;;7.92;100.00
47166;BME280;32930;51.112;13.762;2022-11-25T19:53:50;99703.22;;;8.24;100.00
47166;BME280;32930;51.112;13.762;2022-11-25T19:56:18;99703.72;;;8.04;100.00
47166;BME280;32930;51.112;13.762;2022-11-25T19:58:47;99707.94;;;8.01;100.00
47166;BME280;32930;51.112;13.762;2022-11-25T20:01:14;99709.81;;;8.12;100.00
47166;BME280;32930;51.112;13.762;2022-11-25T20:03:41;99724.34;;;8.15;100.00
47166;BME280;32930;51.112;13.762;2022-11-25T20:06:14;99721.72;;;8.12;100.00
47166;BME280;32930;51.112;13.762;2022-11-25T20:08:41;99719.69;;;7.94;100.00
47166;BME280;32930;51.112;13.762;2022-11-25T20:11:11;99717.94;;;7.90;100.00
47166;BME280;32930;51.112;13.762;2022-11-25T20:13:37;99721.41;;;7.94;100.00
47166;BME280;32930;51.112;13.762;2022-11-25T20:16:03;99727.69;;;8.11;100.00
47166;BME280;32930;51.112;13.762;2022-11-25T20:18:34;99732.56;;;7.99;100.00
47166;BME280;32930;51.112;13.762;2022-11-25T20:21:04;99735.31;;;8.09;100.00
47166;BME280;32930;51.112;13.762;2022-11-25T20:23:34;99738.59;;;8.02;100.00
47166;BME280;32930;51.112;13.762;2022-11-25T20:26:02;99732.78;;;8.11;100.00
47166;BME280;32930;51.112;13.762;2022-11-25T20:28:29;99754.09;;;8.13;100.00
47166;BME280;32930;51.112;13.762;2022-11-25T20:30:55;99758.31;;;8.09;100.00
47166;BME280;32930;51.112;13.762;2022-11-25T20:33:27;99752.44;;;8.15;100.00
47166;BME280;32930;51.112;13.762;2022-11-25T20:36:02;99759.09;;;8.07;100.00
47166;BME280;32930;51.112;13.762;2022-11-25T20:38:31;99760.84;;;8.08;100.00
47166;BME280;32930;51.112;13.762;2022-11-25T20:40:59;99758.31;;;8.09;100.00
47166;BME280;32930;51.112;13.762;2022-11-25T20:43:51;99760.72;;;8.02;100.00
47166;BME280;32930;51.112;13.762;2022-11-25T20:46:25;99766.88;;;8.13;100.00
47166;BME280;32930;51.112;13.762;2022-11-25T20:48:56;99768.50;;;8.08;100.00
47166;BME280;32930;51.112;13.762;2022-11-25T20:51:23;99771.25;;;8.17;100.00
47166;BME280;32930;51.112;13.762;2022-11-25T20:53:55;99771.31;;;8.22;100.00
47166;BME280;32930;51.112;13.762;2022-11-25T20:56:23;99771.94;;;8.10;100.00
47166;BME280;32930;51.112;13.762;2022-11-25T20:58:50;99776.13;;;8.05;100.00
47166;BME280;32930;51.112;13.762;2022-11-25T21:01:16;99775.31;;;8.07;100.00
47166;BME280;32930;51.112;13.762;2022-11-25T21:03:46;99776.91;;;8.02;100.00
47166;BME280;32930;51.112;13.762;2022-11-25T21:06:27;99787.25;;;8.10;100.00
47166;BME280;32930;51.112;13.762;2022-11-25T21:08:57;99786.34;;;8.05;100.00
47166;BME280;32930;51.112;13.762;2022-11-25T21:11:23;99790.53;;;8.01;100.00
47166;BME280;32930;51.112;13.762;2022-11-25T21:13:49;99791.41;;;8.03;100.00
47166;BME280;32930;51.112;13.762;2022-11-25T21:16:16;99793.94;;;8.02;100.00
47166;BME280;32930;51.112;13.762;2022-11-25T21:18:42;99794.00;;;8.06;100.00
47166;BME280;32930;51.112;13.762;2022-11-25T21:21:27;99796.56;;;8.06;100.00
47166;BME280;32930;51.112;13.762;2022-11-25T21:23:54;99804.16;;;8.02;100.00
47166;BME280;32930;51.112;13.762;2022-11-25T21:26:24;99803.41;;;8.07;100.00
47166;BME280;32930;51.112;13.762;2022-11-25T21:28:52;99808.66;;;8.13;100.00
47166;BME280;32930;51.112;13.762;2022-11-25T21:31:21;99808.41;;;8.01;100.00
47166;BME280;32930;51.112;13.762;2022-11-25T21:33:48;99807.69;;;8.08;100.00
47166;BME280;32930;51.112;13.762;2022-11-25T21:36:26;99819.00;;;8.21;100.00
47166;BME280;32930;51.112;13.762;2022-11-25T21:39:03;99804.41;;;8.14;100.00
47166;BME280;32930;51.112;13.762;2022-11-25T21:41:29;99813.09;;;8.24;100.00
47166;BME280;32930;51.112;13.762;2022-11-25T21:43:54;99817.22;;;8.17;100.00
47166;BME280;32930;51.112;13.762;2022-11-25T21:46:21;99809.75;;;8.28;100.00
47166;BME280;32930;51.112;13.762;2022-11-25T21:48:51;99816.63;;;8.30;100.00
47166;BME280;32930;51.112;13.762;2022-11-25T21:51:16;99814.13;;;8.35;100.00
47166;BME280;32930;51.112;13.762;2022-11-25T21:53:57;99821.81;;;8.35;100.00
47166;BME280;32930;51.112;13.762;2022-11-25T21:56:29;99815.13;;;8.39;100.00
47166;BME280;32930;51.112;13.762;2022-11-25T21:58:57;99822.78;;;8.40;100.00
47166;BME280;32930;51.112;13.762;2022-11-25T22:01:24;99817.78;;;8.46;100.00
47166;BME280;32930;51.112;13.762;2022-11-25T22:03:50;99823.91;;;8.54;100.00
47166;BME280;32930;51.112;13.762;2022-11-25T22:08:47;99823.88;;;8.53;100.00
47166;BME280;32930;51.112;13.762;2022-11-25T22:11:16;99819.44;;;8.44;100.00
47166;BME280;32930;51.112;13.762;2022-11-25T22:13:43;99810.00;;;8.40;100.00
47166;BME280;32930;51.112;13.762;2022-11-25T22:16:16;99819.63;;;8.53;100.00
47166;BME280;32930;51.112;13.762;2022-11-25T22:18:43;99823.97;;;8.59;100.00
47166;BME280;32930;51.112;13.762;2022-11-25T22:21:13;99820.53;;;8.55;100.00
47166;BME280;32930;51.112;13.762;2022-11-25T22:23:40;99827.50;;;8.64;100.00
47166;BME280;32930;51.112;13.762;2022-11-25T22:26:06;99830.91;;;8.65;100.00
47166;BME280;32930;51.112;13.762;2022-11-25T22:28:35;99826.72;;;8.68;100.00
47166;BME280;32930;51.112;13.762;2022-11-25T22:31:05;99829.09;;;8.57;100.00
47166;BME280;32930;51.112;13.762;2022-11-25T22:33:35;99830.88;;;8.63;100.00
47166;BME280;32930;51.112;13.762;2022-11-25T22:36:02;99832.50;;;8.58;100.00
47166;BME280;32930;51.112;13.762;2022-11-25T22:38:28;99829.09;;;8.59;100.00
47166;BME280;32930;51.112;13.762;2022-11-25T22:44:21;99841.34;;;8.77;100.00
47166;BME280;32930;51.112;13.762;2022-11-25T22:46:48;99842.06;;;8.70;100.00
47166;BME280;32930;51.112;13.762;2022-11-25T22:49:26;99848.06;;;8.70;100.00
47166;BME280;32930;51.112;13.762;2022-11-25T22:51:53;99853.00;;;8.61;100.00
47166;BME280;32930;51.112;13.762;2022-11-25T22:54:21;99852.34;;;8.73;100.00
47166;BME280;32930;51.112;13.762;2022-11-25T22:56:47;99857.25;;;8.61;100.00
47166;BME280;32930;51.112;13.762;2022-11-25T22:59:12;99855.84;;;8.76;100.00
47166;BME280;32930;51.112;13.762;2022-11-25T23:01:38;99869.31;;;8.68;100.00
47166;BME280;32930;51.112;13.762;2022-11-25T23:04:04;99867.63;;;8.68;100.00
47166;BME280;32930;51.112;13.762;2022-11-25T23:06:31;99860.06;;;8.76;100.00
47166;BME280;32930;51.112;13.762;2022-11-25T23:08:56;99866.88;;;8.74;100.00
47166;BME280;32930;51.112;13.762;2022-11-25T23:11:23;99864.16;;;8.65;100.00
47166;BME280;32930;51.112;13.762;2022-11-25T23:13:49;99866.03;;;8.75;100.00
47166;BME280;32930;51.112;13.762;2022-11-25T23:16:15;99868.53;;;8.72;100.00
47166;BME280;32930;51.112;13.762;2022-11-25T23:18:44;99871.94;;;8.71;100.00
47166;BME280;32930;51.112;13.762;2022-11-25T23:21:20;99875.47;;;8.79;100.00
47166;BME280;32930;51.112;13.762;2022-11-25T23:23:50;99877.06;;;8.72;100.00
47166;BME280;32930;51.112;13.762;2022-11-25T23:26:16;99882.38;;;8.83;100.00
47166;BME280;32930;51.112;13.762;2022-11-25T23:28:41;99879.56;;;8.68;100.00
47166;BME280;32930;51.112;13.762;2022-11-25T23:31:10;99882.19;;;8.72;100.00
47166;BME280;32930;51.112;13.762;2022-11-25T23:33:39;99873.41;;;8.58;100.00
47166;BME280;32930;51.112;13.762;2022-11-25T23:36:24;99876.22;;;8.72;100.00
47166;BME280;32930;51.112;13.762;2022-11-25T23:39:00;99872.91;;;8.77;100.00
47166;BME280;32930;51.112;13.762;2022-11-25T23:41:32;99882.44;;;8.86;100.00
47166;BME280;32930;51.112;13.762;2022-11-25T23:46:48;99891.47;;;8.67;100.00
47166;BME280;32930;51.112;13.762;2022-11-25T23:49:32;99882.16;;;8.71;100.00
47166;BME280;32930;51.112;13.762;2022-11-25T23:52:00;99895.03;;;8.75;100.00
47166;BME280;32930;51.112;13.762;2022-11-25T23:54:36;99902.19;;;8.93;100.00
47166;BME280;32930;51.112;13.762;2022-11-25T23:57:17;99889.00;;;8.72;100.00
47166;BME280;32930;51.112;13.762;2022-11-25T23:59:44;99887.34;;;8.74;100.00
